Terminal Aerodrome Forecast
Issued by NWS

Home | Current Version | Previous Version | Graphics & Text | Print | Product List | Glossary On
Versions: 1 2 3 4 5 6 7 8 9 10 11 12 13 14 15 16 17 18 19
754
FTUS43 KMPX 062134 AAB
TAFAXN
TAF AMD
KAXN 062134Z 0622/0718 27025G33KT 1/4SM -SN BLSN VV010
     FM070300 28021G28KT 3SM -SN BLSN OVC020
     FM070800 28018G26KT 6SM -SN BR OVC040=

USA.gov is the U.S. government's official web portal to all federal, state and local government web resources and services.